Vado, New Mexico
Current Conditions -  °F | °C
As of 12:35 AM on Wednesday 26 Nov 2014 (Local Time) from KLRU Reporting Station
Clear Clear  
Wind Chill: 26°   Ceiling: Unl
Heat Index: 32°   Visibility: 10mi
Dew Point:   Wind: 7mph
Humidity: 27%   Direction: 320°NW
Pressure: 30.31"   Gusts: NA
Location:  32.12°N, 106.66°W
Report Text: KLRU 260735Z AUTO 32006KT 10SM CLR 00/M17 A3031 RMK AO2 T00001173 PWINO
Loading
Personal Weather Stations






























Interactive Weather Map New forecast layout! Learn more

10-Day Weather Forecast

Advertisements
Track Severe Weather on mobile